Time;durP1;ratioP1;P1;durP2;ratioP2;P2;SDS_P1;SDS_P2;PMS_P1;PMS_P2;Temp;Humidity;BMP_temperature;BMP_pressure;BME280_temperature;BME280_humidity;BME280_pressure;Samples;Min_cycle;Max_cycle;Signal;HPM_P1;HPM_P2
2022/04/21 00:00:04;;;;;;;7.10;2.70;;;12.80;55.20;;;;;;5079564;28;20031;-82
2022/04/21 00:02:30;;;;;;;5.80;3.17;;;12.70;55.20;;;;;;5097405;28;20488;-81
2022/04/21 00:04:55;;;;;;;6.25;3.13;;;12.70;55.20;;;;;;5097380;28;20047;-82
2022/04/21 00:07:22;;;;;;;6.40;2.85;;;12.70;55.30;;;;;;5062653;28;20036;-81
2022/04/21 00:09:48;;;;;;;8.52;3.38;;;12.70;55.70;;;;;;5079165;28;20472;-74
2022/04/21 00:12:14;;;;;;;7.97;3.00;;;12.70;55.70;;;;;;5079470;28;20024;-82
2022/04/21 00:14:40;;;;;;;6.65;3.55;;;12.60;55.80;;;;;;5079290;28;20039;-82
2022/04/21 00:17:08;;;;;;;6.68;2.63;;;12.60;55.90;;;;;;5062228;28;20115;-82
2022/04/21 00:19:34;;;;;;;5.32;2.88;;;12.50;55.80;;;;;;5079495;28;20032;-82
2022/04/21 00:24:44;;;;;;;6.05;2.78;;;12.50;56.00;;;;;;5082032;28;20042;-82
2022/04/21 00:27:09;;;;;;;7.95;3.38;;;12.40;56.30;;;;;;5079000;28;20474;-82
2022/04/21 00:29:35;;;;;;;5.40;2.47;;;12.40;56.30;;;;;;5097283;28;20032;-82
2022/04/21 00:32:01;;;;;;;8.05;3.30;;;12.40;56.40;;;;;;5097039;28;20062;-82
2022/04/21 00:34:27;;;;;;;6.00;3.15;;;12.40;56.50;;;;;;5078910;28;20119;-81
2022/04/21 00:36:52;;;;;;;5.13;2.90;;;12.30;56.50;;;;;;5096796;28;20111;-81
2022/04/21 00:39:18;;;;;;;7.47;3.08;;;12.20;56.50;;;;;;5078720;28;20074;-81
2022/04/21 00:41:44;;;;;;;5.65;2.80;;;12.30;56.90;;;;;;5062051;28;20032;-82
2022/04/21 00:44:09;;;;;;;10.00;3.10;;;12.20;56.80;;;;;;5079037;28;20077;-81
2022/04/21 00:46:38;;;;;;;7.50;3.03;;;12.20;57.00;;;;;;5078754;28;20039;-82
2022/04/21 00:49:08;;;;;;;5.50;2.78;;;12.20;57.20;;;;;;5078400;28;20020;-82
2022/04/21 00:51:35;;;;;;;6.40;3.00;;;12.20;57.40;;;;;;5078742;28;20024;-82
2022/04/21 00:54:00;;;;;;;7.63;3.45;;;12.10;58.10;;;;;;5078760;28;20024;-82
2022/04/21 00:56:26;;;;;;;7.80;3.22;;;12.10;57.70;;;;;;5096539;28;20031;-81
2022/04/21 00:58:53;;;;;;;8.20;2.87;;;12.10;58.20;;;;;;5096622;28;20384;-80
2022/04/21 01:04:04;;;;;;;7.13;3.80;;;12.00;58.30;;;;;;5097079;28;20396;-82
2022/04/21 01:06:30;;;;;;;6.80;3.20;;;12.00;58.40;;;;;;5078364;28;20038;-82
2022/04/21 01:08:55;;;;;;;9.23;3.37;;;12.00;58.60;;;;;;5096337;28;20024;-82
2022/04/21 01:11:21;;;;;;;5.93;3.50;;;12.00;58.80;;;;;;5096297;28;20054;-82
2022/04/21 01:13:47;;;;;;;9.52;3.78;;;11.90;59.60;;;;;;5061432;28;20097;-81
2022/04/21 01:16:13;;;;;;;8.13;3.43;;;11.90;59.40;;;;;;5096273;28;20055;-82
2022/04/21 01:18:40;;;;;;;6.10;3.27;;;11.90;59.40;;;;;;5095962;28;20068;-82
2022/04/21 01:21:06;;;;;;;10.43;4.13;;;11.90;59.60;;;;;;5078323;28;20388;-81
2022/04/21 01:23:32;;;;;;;6.72;2.90;;;11.80;59.70;;;;;;5096073;28;20024;-82
2022/04/21 01:25:59;;;;;;;7.57;3.97;;;11.80;60.00;;;;;;5077738;28;20070;-82
2022/04/21 01:28:25;;;;;;;7.10;3.20;;;11.80;60.20;;;;;;5096009;28;20058;-82
2022/04/21 01:30:55;;;;;;;7.40;4.10;;;11.80;60.10;;;;;;5061048;28;20116;-81
2022/04/21 01:33:20;;;;;;;9.97;3.50;;;11.80;60.40;;;;;;5060885;28;20490;-82
2022/04/21 01:35:46;;;;;;;8.20;3.38;;;11.70;60.40;;;;;;5077747;28;20094;-82
2022/04/21 01:41:11;;;;;;;6.22;3.60;;;11.70;60.70;;;;;;5095946;28;20062;-82
2022/04/21 01:43:39;;;;;;;9.18;3.72;;;11.70;60.80;;;;;;5095634;28;20026;-82
2022/04/21 01:46:05;;;;;;;7.47;3.90;;;11.60;60.90;;;;;;5095595;28;20035;-81
2022/04/21 01:48:31;;;;;;;7.90;3.73;;;11.60;61.10;;;;;;5077313;28;20032;-82
2022/04/21 01:50:56;;;;;;;7.63;3.83;;;11.50;61.50;;;;;;5077349;28;20032;-82
2022/04/21 01:53:22;;;;;;;6.25;3.90;;;11.50;61.90;;;;;;5077462;28;20050;-82
2022/04/21 01:55:48;;;;;;;7.53;3.57;;;11.50;62.00;;;;;;5077352;28;20028;-82
2022/04/21 01:58:13;;;;;;;9.40;4.40;;;11.50;62.20;;;;;;5095211;28;20099;-82
2022/04/21 02:00:40;;;;;;;8.23;3.90;;;11.50;62.30;;;;;;5060610;28;20081;-82
2022/04/21 02:03:06;;;;;;;7.93;4.00;;;11.40;62.70;;;;;;5077142;28;20121;-82
2022/04/21 02:05:32;;;;;;;7.03;4.40;;;11.40;62.80;;;;;;5095179;28;20551;-81
2022/04/21 02:07:58;;;;;;;8.73;4.40;;;11.40;63.70;;;;;;5095068;28;20435;-81
2022/04/21 02:10:23;;;;;;;10.87;4.23;;;11.30;63.60;;;;;;5076897;28;20094;-82
2022/04/21 02:12:49;;;;;;;7.47;4.07;;;11.40;63.70;;;;;;5076922;28;20036;-82
2022/04/21 02:15:17;;;;;;;8.93;4.77;;;11.30;63.70;;;;;;5076899;28;20020;-82
2022/04/21 02:17:44;;;;;;;9.27;4.50;;;11.30;64.50;;;;;;5075906;28;20412;-83
2022/04/21 02:20:16;;;;;;;7.13;4.33;;;11.30;63.90;;;;;;5073389;28;20093;-82
2022/04/21 02:22:43;;;;;;;8.63;4.40;;;11.30;64.00;;;;;;5073915;28;20043;-82
2022/04/21 02:25:09;;;;;;;7.43;4.23;;;11.20;64.10;;;;;;5060096;28;20028;-82
2022/04/21 02:27:40;;;;;;;8.70;4.70;;;11.20;64.30;;;;;;5094532;28;20063;-82
2022/04/21 02:30:08;;;;;;;11.63;4.07;;;11.20;65.10;;;;;;5076539;28;20028;-82
2022/04/21 02:32:34;;;;;;;7.53;4.50;;;11.10;64.40;;;;;;5094540;28;20028;-82
2022/04/21 02:35:01;;;;;;;14.13;4.47;;;11.10;64.40;;;;;;5094615;28;20027;-82
2022/04/21 02:37:26;;;;;;;8.77;4.63;;;11.10;64.70;;;;;;5076425;28;20391;-82
2022/04/21 02:39:52;;;;;;;8.77;3.97;;;11.10;64.80;;;;;;5094543;28;20020;-82
2022/04/21 02:42:20;;;;;;;11.00;3.77;;;11.00;64.80;;;;;;5076573;28;20051;-82
2022/04/21 02:44:46;;;;;;;9.13;4.07;;;11.10;65.00;;;;;;5094647;28;20043;-82
2022/04/21 02:47:12;;;;;;;7.87;3.97;;;11.00;65.10;;;;;;5076311;28;20540;-81
2022/04/21 02:49:40;;;;;;;8.23;4.10;;;11.00;65.40;;;;;;5076331;28;20396;-81
2022/04/21 02:52:07;;;;;;;6.33;3.73;;;11.00;65.80;;;;;;5076017;28;20032;-81
2022/04/21 02:57:20;;;;;;;;;;;10.90;65.40;;;;;;5095077;28;20047;-81
2022/04/21 02:59:50;;;;;;;9.77;4.50;;;10.90;66.10;;;;;;5076142;28;19915;-81
2022/04/21 03:02:16;;;;;;;8.50;4.73;;;10.90;65.60;;;;;;5095213;28;20024;-81
2022/04/21 03:04:41;;;;;;;7.97;4.27;;;10.80;65.50;;;;;;5076291;28;20051;-81
2022/04/21 03:07:07;;;;;;;8.07;4.50;;;10.80;66.00;;;;;;5094342;28;20471;-82
2022/04/21 03:09:33;;;;;;;9.10;3.93;;;10.80;66.10;;;;;;5059728;28;20055;-81
2022/04/21 03:12:05;;;;;;;10.17;4.40;;;10.80;66.10;;;;;;5094560;28;20107;-81
2022/04/21 03:14:31;;;;;;;6.57;4.10;;;10.80;66.30;;;;;;5094073;28;20028;-81
2022/04/21 03:17:00;;;;;;;9.00;4.23;;;10.80;66.50;;;;;;5094024;28;20028;-81
2022/04/21 03:19:25;;;;;;;9.13;4.40;;;10.70;66.30;;;;;;5093615;28;20089;-81
2022/04/21 03:24:37;;;;;;;9.52;4.18;;;10.70;67.40;;;;;;5094222;28;20039;-81
2022/04/21 03:27:03;;;;;;;7.33;3.77;;;10.70;67.00;;;;;;5094301;28;20032;-81
2022/04/21 03:29:29;;;;;;;7.23;4.37;;;10.70;67.10;;;;;;5076451;28;20028;-81
2022/04/21 03:31:54;;;;;;;7.30;3.93;;;10.70;67.20;;;;;;5093933;28;20537;-81
2022/04/21 03:34:20;;;;;;;8.03;3.80;;;10.70;66.90;;;;;;5075602;28;20043;-81
2022/04/21 03:36:50;;;;;;;7.20;3.73;;;10.70;67.10;;;;;;5054125;28;20025;-73
2022/04/21 03:39:16;;;;;;;8.67;4.30;;;10.60;67.10;;;;;;5072412;28;20032;-74
2022/04/21 03:41:42;;;;;;;7.63;3.93;;;10.70;66.80;;;;;;5053913;28;20017;-74
2022/04/21 03:44:09;;;;;;;7.50;3.80;;;10.60;66.70;;;;;;5054936;28;20094;-74
2022/04/21 03:46:35;;;;;;;6.97;4.13;;;10.70;66.70;;;;;;5072278;28;20028;-73
2022/04/21 03:49:01;;;;;;;9.00;3.67;;;10.60;66.90;;;;;;5055474;28;20035;-73
2022/04/21 03:51:27;;;;;;;7.17;3.87;;;10.70;66.80;;;;;;5055169;28;20111;-73
2022/04/21 03:53:55;;;;;;;7.97;3.47;;;10.60;67.10;;;;;;5073186;28;20060;-73
2022/04/21 03:56:21;;;;;;;8.80;3.80;;;10.60;67.00;;;;;;5073079;28;20469;-73
2022/04/21 03:58:47;;;;;;;6.47;3.77;;;10.60;66.90;;;;;;5073326;28;20115;-73
2022/04/21 04:01:13;;;;;;;5.67;3.40;;;10.60;66.80;;;;;;5055226;28;20413;-74
2022/04/21 04:03:39;;;;;;;8.70;3.50;;;10.60;66.90;;;;;;5088700;28;20404;-73
2022/04/21 04:10:51;;;;;;;13.57;3.93;;;10.50;66.80;;;;;;5055273;28;20103;-73
2022/04/21 04:11:46;;;;;;;7.57;3.60;;;10.40;66.90;;;;;;5035706;28;20033;-73
2022/04/21 04:14:12;;;;;;;6.43;3.33;;;10.30;67.00;;;;;;5055347;28;20025;-73
2022/04/21 04:16:38;;;;;;;7.97;4.50;;;10.20;67.10;;;;;;5088470;28;20083;-73
2022/04/21 04:19:08;;;;;;;8.90;4.07;;;10.20;67.20;;;;;;5055121;28;20039;-74
2022/04/21 04:21:38;;;;;;;7.40;3.90;;;10.20;67.30;;;;;;5038909;28;20036;-73
2022/04/21 04:24:04;;;;;;;6.30;3.60;;;10.20;67.50;;;;;;5071698;28;20418;-74
2022/04/21 04:26:32;;;;;;;9.33;3.30;;;10.20;67.70;;;;;;5072803;28;20056;-74
2022/04/21 04:28:58;;;;;;;6.90;3.63;;;10.20;67.70;;;;;;5088533;28;20044;-74
2022/04/21 04:31:24;;;;;;;7.60;3.90;;;10.10;67.90;;;;;;5054921;28;20484;-74
2022/04/21 04:33:50;;;;;;;7.20;4.17;;;10.10;68.10;;;;;;5055002;28;20031;-74
2022/04/21 04:36:16;;;;;;;7.73;4.37;;;10.00;68.20;;;;;;5054901;28;20021;-74
2022/04/21 04:38:43;;;;;;;8.70;4.60;;;10.00;68.10;;;;;;5055130;28;20111;-74
2022/04/21 04:43:53;;;;;;;9.15;3.95;;;10.00;68.60;;;;;;5061992;28;20044;-74
2022/04/21 04:46:37;;;;;;;7.20;3.77;;;10.00;68.60;;;;;;5076593;28;20392;-74
2022/04/21 04:49:09;;;;;;;7.50;3.77;;;10.00;69.20;;;;;;5077578;28;20028;-74
2022/04/21 04:51:37;;;;;;;11.00;3.97;;;9.90;69.50;;;;;;5073520;28;20024;-72
2022/04/21 04:54:05;;;;;;;10.37;4.20;;;10.00;69.50;;;;;;5095450;28;20043;-72
2022/04/21 04:56:31;;;;;;;9.20;3.90;;;9.90;70.00;;;;;;5071792;28;20494;-73
2022/04/21 04:58:57;;;;;;;8.33;4.97;;;9.90;69.70;;;;;;5095516;28;20031;-73
2022/04/21 05:01:39;;;;;;;8.53;4.27;;;9.90;70.20;;;;;;5090237;28;20020;-72
2022/04/21 05:04:15;;;;;;;7.53;3.77;;;9.90;69.90;;;;;;5077658;28;20032;-73
2022/04/21 05:06:41;;;;;;;10.23;4.00;;;9.90;70.20;;;;;;5077539;28;20111;-73
2022/04/21 05:09:11;;;;;;;8.50;4.53;;;9.90;70.30;;;;;;5077762;28;20116;-74
2022/04/21 05:11:37;;;;;;;6.73;3.67;;;9.80;70.20;;;;;;5096173;28;20028;-73
2022/04/21 05:14:04;;;;;;;7.67;4.00;;;9.90;70.30;;;;;;5077953;28;20450;-73
2022/04/21 05:16:30;;;;;;;8.87;3.33;;;10.00;70.50;;;;;;5078296;28;20032;-75
2022/04/21 05:18:58;;;;;;;8.73;4.13;;;9.90;70.60;;;;;;5095774;28;20046;-72
2022/04/21 05:21:25;;;;;;;7.47;3.53;;;9.90;70.40;;;;;;5078061;28;20039;-73
2022/04/21 05:23:57;;;;;;;6.40;3.67;;;9.90;70.50;;;;;;5095991;28;20024;-73
2022/04/21 05:26:23;;;;;;;8.10;3.43;;;10.00;71.00;;;;;;5095762;28;20044;-72
2022/04/21 05:28:49;;;;;;;6.43;3.80;;;10.00;71.00;;;;;;5078023;28;20036;-72
2022/04/21 05:31:16;;;;;;;9.17;3.73;;;10.00;71.00;;;;;;5077680;28;20030;-73
2022/04/21 05:33:42;;;;;;;8.27;3.53;;;10.10;70.90;;;;;;5074597;28;20403;-73
2022/04/21 05:36:09;;;;;;;6.37;3.60;;;10.10;70.50;;;;;;5077151;28;20055;-73
2022/04/21 05:38:35;;;;;;;8.30;4.13;;;10.10;70.60;;;;;;5077181;28;20397;-74
2022/04/21 05:41:01;;;;;;;11.03;4.13;;;10.10;70.70;;;;;;5092410;28;20039;-74
2022/04/21 05:43:38;;;;;;;7.80;3.63;;;10.20;70.60;;;;;;5076809;28;20028;-73
2022/04/21 05:46:05;;;;;;;7.37;3.53;;;10.20;70.70;;;;;;5090991;28;20031;-73
2022/04/21 05:48:31;;;;;;;8.03;3.97;;;10.20;70.70;;;;;;5076704;28;20028;-73
2022/04/21 05:50:56;;;;;;;6.53;3.57;;;10.20;70.80;;;;;;5094905;28;20043;-74
2022/04/21 05:53:24;;;;;;;6.63;3.57;;;10.30;70.50;;;;;;5094868;28;20027;-74
2022/04/21 05:55:51;;;;;;;6.83;3.53;;;10.30;70.50;;;;;;5095916;28;20484;-73
2022/04/21 05:58:18;;;;;;;6.67;3.37;;;10.30;70.40;;;;;;5077094;28;20024;-74
2022/04/21 06:00:43;;;;;;;7.83;3.50;;;10.30;71.10;;;;;;5077381;28;20123;-74
2022/04/21 06:03:11;;;;;;;4.43;2.60;;;10.30;70.50;;;;;;5095252;28;20063;-73
2022/04/21 06:05:37;;;;;;;7.60;3.10;;;10.40;70.70;;;;;;5095506;28;20499;-72
2022/04/21 06:08:03;;;;;;;6.30;2.93;;;10.30;70.80;;;;;;5094898;28;20028;-73
2022/04/21 06:10:29;;;;;;;5.20;2.90;;;10.40;70.50;;;;;;5076825;28;20094;-73
2022/04/21 06:12:55;;;;;;;7.83;3.40;;;10.40;70.60;;;;;;5076691;28;20495;-72
2022/04/21 06:15:21;;;;;;;5.97;2.90;;;10.40;70.70;;;;;;5076833;28;20024;-72
2022/04/21 06:17:46;;;;;;;8.33;3.10;;;10.50;70.80;;;;;;5094514;28;20491;-73
2022/04/21 06:20:12;;;;;;;6.53;2.93;;;10.50;70.90;;;;;;5059736;28;20032;-73
2022/04/21 06:22:39;;;;;;;5.87;2.30;;;10.60;71.00;;;;;;5076495;28;20499;-72
2022/04/21 06:25:05;;;;;;;5.13;2.47;;;10.60;70.90;;;;;;5094845;28;20411;-73
2022/04/21 06:27:31;;;;;;;7.67;2.83;;;10.70;70.90;;;;;;5094713;28;20096;-72
2022/04/21 06:29:56;;;;;;;4.83;2.27;;;10.80;70.80;;;;;;5094503;28;20536;-72
2022/04/21 06:32:24;;;;;;;5.13;2.70;;;10.80;70.70;;;;;;5076573;28;20040;-72
2022/04/21 06:34:50;;;;;;;5.07;3.00;;;10.80;70.60;;;;;;5076858;28;20035;-72
2022/04/21 06:37:15;;;;;;;4.88;2.97;;;10.90;70.60;;;;;;5076252;28;20466;-73
2022/04/21 06:39:41;;;;;;;5.37;2.87;;;10.90;70.50;;;;;;5059603;28;20028;-73
2022/04/21 06:42:07;;;;;;;5.20;2.53;;;11.00;70.40;;;;;;5076440;28;20032;-71
2022/04/21 06:50:01;;;;;;;4.85;2.70;;;11.20;70.10;;;;;;5094837;28;20042;-73
2022/04/21 06:52:27;;;;;;;5.50;2.92;;;11.30;70.00;;;;;;5076225;28;20031;-72
2022/04/21 06:54:53;;;;;;;7.63;2.83;;;11.30;69.90;;;;;;5076187;28;20486;-72
2022/04/21 06:57:19;;;;;;;4.32;2.55;;;11.30;69.70;;;;;;5094290;28;20039;-72
2022/04/21 06:59:45;;;;;;;5.22;2.78;;;11.40;69.70;;;;;;5059368;28;20024;-72
2022/04/21 07:02:12;;;;;;;4.22;2.28;;;11.40;69.70;;;;;;5059247;28;20035;-72
2022/04/21 07:04:38;;;;;;;4.32;2.47;;;11.50;69.70;;;;;;5059101;28;20077;-73
2022/04/21 07:07:04;;;;;;;5.10;2.75;;;11.50;69.60;;;;;;5094045;28;20384;-73
2022/04/21 07:09:30;;;;;;;7.40;2.85;;;11.60;69.50;;;;;;5059024;28;20032;-72
2022/04/21 07:11:55;;;;;;;5.60;2.88;;;11.60;69.40;;;;;;5076194;28;20055;-73
2022/04/21 07:14:21;;;;;;;5.90;2.85;;;11.70;69.30;;;;;;5076044;28;20123;-71
2022/04/21 07:16:46;;;;;;;6.00;2.90;;;11.80;69.20;;;;;;5093803;28;20032;-73
2022/04/21 07:19:12;;;;;;;4.68;2.47;;;11.80;69.00;;;;;;5075607;28;20048;-72
2022/04/21 07:21:38;;;;;;;4.97;2.38;;;11.80;68.80;;;;;;5058848;28;20434;-72
2022/04/21 07:24:03;;;;;;;4.93;2.25;;;11.90;68.50;;;;;;5075807;28;20040;-73
2022/04/21 07:26:29;;;;;;;5.63;2.38;;;11.90;68.10;;;;;;5059214;28;20082;-72
2022/04/21 07:28:55;;;;;;;4.22;2.08;;;12.00;67.80;;;;;;5075736;28;20032;-73
2022/04/21 07:31:21;;;;;;;3.97;1.77;;;12.10;67.40;;;;;;5093530;28;20062;-72
2022/04/21 07:33:46;;;;;;;5.35;2.13;;;12.10;67.00;;;;;;5093773;28;20380;-73
2022/04/21 07:36:12;;;;;;;4.78;1.77;;;12.20;66.70;;;;;;5075696;28;20040;-73
2022/04/21 07:38:37;;;;;;;2.85;1.70;;;12.20;66.30;;;;;;5093544;28;20115;-73
2022/04/21 07:41:03;;;;;;;4.68;2.05;;;12.30;66.00;;;;;;5093528;28;20107;-72
2022/04/21 07:43:31;;;;;;;4.50;1.73;;;12.30;65.60;;;;;;5075122;28;20028;-73
2022/04/21 07:45:57;;;;;;;4.38;1.95;;;12.40;65.30;;;;;;5075375;28;20093;-72
2022/04/21 07:48:22;;;;;;;6.22;1.67;;;12.40;64.90;;;;;;5093527;28;20039;-72
2022/04/21 07:50:49;;;;;;;2.97;1.30;;;12.50;64.60;;;;;;5093511;28;20033;-73
2022/04/21 07:53:15;;;;;;;4.80;1.42;;;12.60;64.20;;;;;;5075869;28;20036;-73
2022/04/21 07:55:46;;;;;;;3.28;1.63;;;12.60;63.80;;;;;;5058879;28;20077;-73
2022/04/21 07:58:13;;;;;;;3.25;1.52;;;12.70;63.40;;;;;;5075538;28;20028;-72
2022/04/21 08:00:40;;;;;;;3.92;1.50;;;12.80;63.20;;;;;;5075522;28;20024;-72
2022/04/21 08:03:09;;;;;;;4.35;1.30;;;12.80;62.90;;;;;;5093432;28;20032;-73
2022/04/21 08:05:35;;;;;;;4.43;1.30;;;12.90;62.50;;;;;;5075295;28;20115;-73
2022/04/21 08:08:03;;;;;;;5.60;1.30;;;13.00;62.30;;;;;;5075234;28;20546;-73
2022/04/21 08:10:29;;;;;;;2.88;1.02;;;13.00;61.90;;;;;;5058876;28;20035;-73
2022/04/21 08:12:58;;;;;;;3.80;1.27;;;13.10;61.60;;;;;;5075655;28;20119;-72
2022/04/21 08:15:31;;;;;;;2.83;1.00;;;13.10;61.30;;;;;;5075143;28;20024;-71
2022/04/21 08:17:59;;;;;;;5.75;1.50;;;13.20;61.10;;;;;;5096688;28;20040;-72
2022/04/21 08:20:26;;;;;;;3.63;1.23;;;13.20;60.70;;;;;;5097180;28;20483;-73
2022/04/21 08:22:52;;;;;;;4.93;1.17;;;13.30;60.40;;;;;;5079398;28;20028;-73
2022/04/21 08:33:32;;;;;;;2.75;1.25;;;13.50;59.60;;;;;;5081524;28;20047;-72
2022/04/21 08:35:58;;;;;;;4.78;1.30;;;13.60;59.50;;;;;;5096956;28;20020;-73
2022/04/21 08:38:25;;;;;;;3.60;1.65;;;13.70;59.40;;;;;;5078832;28;20099;-73
2022/04/21 08:40:56;;;;;;;2.70;1.33;;;13.70;59.20;;;;;;5078909;28;20107;-72
2022/04/21 08:43:23;;;;;;;2.95;0.98;;;13.80;59.10;;;;;;5078923;28;20111;-72
2022/04/21 08:45:51;;;;;;;5.80;1.20;;;13.80;58.90;;;;;;5096719;28;20024;-73
2022/04/21 08:48:26;;;;;;;3.58;1.30;;;13.90;58.70;;;;;;5096801;28;20115;-73
2022/04/21 08:50:52;;;;;;;2.33;0.90;;;14.00;58.50;;;;;;5078793;28;20089;-73
2022/04/21 08:53:20;;;;;;;2.00;1.10;;;14.00;58.30;;;;;;5078669;28;20065;-72
2022/04/21 08:55:49;;;;;;;2.55;1.00;;;14.10;58.00;;;;;;5096533;28;20504;-73
2022/04/21 08:58:16;;;;;;;3.75;0.75;;;14.20;58.20;;;;;;5096567;28;20016;-72
2022/04/21 09:00:43;;;;;;;4.20;1.00;;;14.30;57.40;;;;;;5096778;28;20024;-72
2022/04/21 09:03:10;;;;;;;3.05;1.27;;;14.30;57.30;;;;;;5061927;28;20370;-72
2022/04/21 09:05:36;;;;;;;5.22;1.30;;;14.40;57.30;;;;;;5096430;28;20032;-73
2022/04/21 09:08:02;;;;;;;2.47;0.85;;;14.50;57.00;;;;;;5077883;28;20020;-73
2022/04/21 09:10:32;;;;;;;2.05;0.90;;;14.50;56.90;;;;;;5077929;28;20029;-72
2022/04/21 09:13:02;;;;;;;3.53;0.90;;;14.60;56.80;;;;;;5096354;28;20042;-72
2022/04/21 09:15:30;;;;;;;3.05;1.20;;;14.70;56.70;;;;;;5096355;28;20028;-72
2022/04/21 09:18:01;;;;;;;4.85;1.05;;;14.70;56.60;;;;;;5095897;28;20586;-71
2022/04/21 09:20:35;;;;;;;6.10;1.17;;;14.80;56.40;;;;;;5077989;28;20024;-72
2022/04/21 09:23:05;;;;;;;6.75;1.40;;;14.80;56.40;;;;;;5095990;28;20024;-75
2022/04/21 09:25:51;;;;;;;1.98;0.80;;;14.80;56.20;;;;;;5077761;28;20028;-79
2022/04/21 09:28:29;;;;;;;2.13;0.88;;;14.90;56.60;;;;;;5095277;28;20535;-78
2022/04/21 09:31:00;;;;;;;6.75;1.10;;;15.00;55.70;;;;;;5096080;28;20035;-77
2022/04/21 09:33:30;;;;;;;3.80;0.95;;;15.00;55.40;;;;;;5077601;28;20085;-79
2022/04/21 09:35:57;;;;;;;2.00;0.50;;;15.10;55.00;;;;;;5095912;28;20024;-78
2022/04/21 09:38:23;;;;;;;4.47;0.88;;;15.20;54.70;;;;;;5077838;28;20032;-79
2022/04/21 09:40:49;;;;;;;1.35;0.60;;;15.20;54.60;;;;;;5095791;28;20032;-78
2022/04/21 09:43:28;;;;;;;2.95;0.85;;;15.30;54.40;;;;;;5077496;28;20075;-77
2022/04/21 09:46:09;;;;;;;4.40;1.10;;;15.30;54.20;;;;;;5095473;28;20031;-78
2022/04/21 09:48:36;;;;;;;3.08;0.88;;;15.40;54.00;;;;;;5063244;28;20036;-78
2022/04/21 09:51:11;;;;;;;4.00;0.90;;;15.50;53.80;;;;;;5095456;28;20032;-78
2022/04/21 09:53:59;;;;;;;2.22;0.77;;;15.60;53.90;;;;;;5077307;28;20028;-78
2022/04/21 09:56:33;;;;;;;1.50;0.70;;;15.60;53.70;;;;;;5077321;28;20043;-79
2022/04/21 09:59:05;;;;;;;2.70;1.00;;;15.70;53.60;;;;;;5095311;28;20056;-79
2022/04/21 10:01:33;;;;;;;2.17;0.80;;;15.80;53.50;;;;;;5095165;28;20028;-79
2022/04/21 10:03:59;;;;;;;1.50;0.70;;;15.80;53.90;;;;;;5077085;28;20177;-80
2022/04/21 10:06:26;;;;;;;4.80;1.02;;;15.90;53.10;;;;;;5095577;28;20024;-79
2022/04/21 10:08:52;;;;;;;2.60;0.80;;;15.90;53.00;;;;;;5095112;28;20032;-79
2022/04/21 10:11:24;;;;;;;4.40;0.90;;;16.00;52.80;;;;;;5095023;28;20033;-79
2022/04/21 10:13:54;;;;;;;3.03;0.90;;;16.00;52.60;;;;;;5095141;28;20035;-80
2022/04/21 10:16:21;;;;;;;2.17;0.70;;;16.20;52.40;;;;;;5095046;28;20024;-79
2022/04/21 10:18:52;;;;;;;3.88;1.25;;;16.30;52.20;;;;;;5094805;28;20040;-79
2022/04/21 10:21:27;;;;;;;5.20;1.17;;;16.50;52.20;;;;;;5069197;28;20077;-78
2022/04/21 10:23:53;;;;;;;1.65;0.60;;;16.60;52.00;;;;;;5089928;28;20028;-80
2022/04/21 10:26:38;;;;;;;1.55;0.80;;;16.80;51.70;;;;;;5094211;28;20031;-78
2022/04/21 10:29:48;;;;;;;4.03;0.80;;;17.00;51.10;;;;;;5076394;28;20048;-78
2022/04/21 10:32:18;;;;;;;4.78;1.00;;;17.30;50.60;;;;;;5083750;28;20594;-79
2022/04/21 10:34:46;;;;;;;2.10;0.60;;;17.50;50.50;;;;;;5076333;28;20488;-78
2022/04/21 10:37:17;;;;;;;2.70;0.80;;;17.70;50.10;;;;;;5076843;28;20422;-79
2022/04/21 10:40:07;;;;;;;2.08;0.85;;;17.90;49.50;;;;;;5093896;28;20503;-78
2022/04/21 10:42:51;;;;;;;2.67;0.70;;;18.10;49.70;;;;;;5094642;28;20024;-79
2022/04/21 10:45:22;;;;;;;2.10;0.80;;;18.30;48.90;;;;;;5076297;28;20119;-79
2022/04/21 10:48:02;;;;;;;3.30;0.77;;;18.60;49.40;;;;;;5076182;28;20020;-79
2022/04/21 10:50:31;;;;;;;1.40;0.60;;;18.80;48.10;;;;;;5076204;28;20066;-80
2022/04/21 10:58:34;;;;;;;3.50;0.80;;;19.40;47.40;;;;;;5095982;28;19927;-77
2022/04/21 11:01:15;;;;;;;1.80;0.57;;;19.60;47.10;;;;;;5094251;28;20103;-79
2022/04/21 11:03:43;;;;;;;4.15;0.52;;;19.70;46.50;;;;;;5076051;28;20107;-80
2022/04/21 11:06:10;;;;;;;1.95;0.60;;;20.00;46.40;;;;;;5094299;28;20089;-79
2022/04/21 11:08:36;;;;;;;4.25;0.82;;;20.30;45.80;;;;;;5094245;28;20039;-80
2022/04/21 11:11:02;;;;;;;2.53;0.80;;;20.40;45.40;;;;;;5075738;28;20127;-80
2022/04/21 11:13:50;;;;;;;2.17;0.90;;;20.70;44.80;;;;;;5075892;28;20088;-80
2022/04/21 11:16:41;;;;;;;4.45;0.70;;;21.00;43.70;;;;;;5075782;28;20016;-79
2022/04/21 11:19:28;;;;;;;4.90;0.55;;;21.20;43.00;;;;;;5093750;28;20040;-80
2022/04/21 11:21:54;;;;;;;2.00;0.75;;;21.40;42.70;;;;;;5075494;28;20031;-78
2022/04/21 11:24:20;;;;;;;4.00;0.80;;;21.60;43.00;;;;;;5075770;28;20032;-78
2022/04/21 11:26:53;;;;;;;2.42;0.70;;;21.90;42.60;;;;;;5075874;28;20064;-80
2022/04/21 11:29:19;;;;;;;1.85;0.60;;;22.00;41.70;;;;;;5093684;28;20472;-80
2022/04/21 11:31:45;;;;;;;2.42;0.70;;;22.20;41.60;;;;;;5093778;28;20040;-79
2022/04/21 11:34:10;;;;;;;1.77;0.80;;;22.20;41.70;;;;;;5075666;28;20036;-80
2022/04/21 11:36:38;;;;;;;3.35;0.80;;;22.20;40.90;;;;;;5093962;28;20103;-80
2022/04/21 11:39:14;;;;;;;4.57;0.85;;;22.20;40.80;;;;;;5075648;28;20055;-80
2022/04/21 11:41:44;;;;;;;2.45;1.10;;;22.30;40.70;;;;;;5093537;28;20021;-79
2022/04/21 11:44:10;;;;;;;2.33;0.90;;;22.50;40.90;;;;;;5093522;28;20089;-79
2022/04/21 11:46:40;;;;;;;2.75;1.05;;;22.60;40.80;;;;;;5075505;28;20027;-79
2022/04/21 11:49:07;;;;;;;1.33;0.60;;;22.90;40.60;;;;;;5075985;28;20063;-79
2022/04/21 11:51:33;;;;;;;2.13;0.70;;;23.20;40.20;;;;;;5093274;28;20096;-80
2022/04/21 11:54:04;;;;;;;3.58;0.70;;;23.40;39.90;;;;;;5075406;28;20111;-79
2022/04/21 11:56:30;;;;;;;4.13;0.68;;;23.70;39.60;;;;;;5093363;28;20511;-74
2022/04/21 11:58:57;;;;;;;2.35;0.70;;;24.00;40.00;;;;;;5093866;28;20071;-74
2022/04/21 12:06:55;;;;;;;1.92;0.75;;;24.50;38.60;;;;;;5078448;28;20506;-75
2022/04/21 12:09:24;;;;;;;2.20;0.70;;;24.60;38.50;;;;;;5093569;28;20034;-73
2022/04/21 12:12:00;;;;;;;1.80;0.60;;;24.70;38.40;;;;;;5075109;28;20468;-73
2022/04/21 12:14:27;;;;;;;1.55;0.70;;;24.80;37.70;;;;;;5093497;28;20061;-74
2022/04/21 12:16:55;;;;;;;1.63;0.70;;;25.20;37.80;;;;;;5093348;28;20430;-74
2022/04/21 12:19:35;;;;;;;2.38;0.73;;;25.40;37.50;;;;;;5093088;28;20118;-74
2022/04/21 12:22:07;;;;;;;2.92;1.00;;;25.60;37.30;;;;;;5074972;28;20063;-75
2022/04/21 12:24:37;;;;;;;2.60;0.90;;;25.90;37.00;;;;;;5076045;28;20055;-75
2022/04/21 12:27:10;;;;;;;2.28;0.90;;;26.10;36.70;;;;;;5093334;28;20028;-75
2022/04/21 12:29:53;;;;;;;1.63;0.70;;;26.20;36.60;;;;;;5075384;28;20016;-74
2022/04/21 12:32:21;;;;;;;;;;;26.20;36.20;;;;;;5075271;28;20032;-74
2022/04/21 12:34:47;;;;;;;5.97;0.80;;;26.10;36.50;;;;;;5092877;28;19904;-74
2022/04/21 12:37:13;;;;;;;5.18;1.02;;;26.00;36.70;;;;;;5074884;28;20086;-74
2022/04/21 12:39:39;;;;;;;4.53;0.95;;;26.20;36.50;;;;;;5093311;28;20187;-74
2022/04/21 12:42:05;;;;;;;2.90;0.75;;;26.40;36.50;;;;;;5093025;28;20032;-73
2022/04/21 12:44:31;;;;;;;6.05;0.90;;;26.60;36.80;;;;;;5074738;28;20037;-75
2022/04/21 12:47:04;;;;;;;2.20;1.00;;;26.80;36.00;;;;;;5074703;28;20531;-74
2022/04/21 12:49:59;;;;;;;3.33;1.00;;;27.00;35.80;;;;;;5093000;28;20154;-74
2022/04/21 12:52:42;;;;;;;2.60;0.77;;;27.20;35.40;;;;;;5092517;28;20036;-74
2022/04/21 12:55:20;;;;;;;4.28;0.80;;;27.40;35.50;;;;;;5092560;28;20024;-75
2022/04/21 12:58:13;;;;;;;3.17;1.00;;;27.70;35.50;;;;;;5092586;28;20489;-75
2022/04/21 13:00:45;;;;;;;5.20;1.10;;;27.90;35.10;;;;;;5074414;28;20081;-74
2022/04/21 13:03:14;;;;;;;1.60;0.80;;;28.20;35.90;;;;;;5076619;28;20113;-75
2022/04/21 13:05:49;;;;;;;2.22;0.80;;;28.40;35.20;;;;;;5061979;28;20103;-76
2022/04/21 13:08:18;;;;;;;3.90;1.08;;;28.50;34.60;;;;;;5096521;28;20024;-76
2022/04/21 13:10:44;;;;;;;3.63;0.93;;;28.70;34.80;;;;;;5061396;28;20024;-75
2022/04/21 13:13:09;;;;;;;4.22;1.50;;;28.90;34.70;;;;;;5061212;28;20032;-75
2022/04/21 13:15:36;;;;;;;4.53;1.00;;;28.90;34.40;;;;;;5061349;28;20021;-75
2022/04/21 13:18:01;;;;;;;4.45;1.10;;;28.90;34.30;;;;;;5060984;28;20401;-75
2022/04/21 13:23:11;;;;;;;1.63;0.75;;;28.70;34.20;;;;;;5081093;28;20036;-75
2022/04/21 13:25:37;;;;;;;5.68;1.10;;;28.60;34.30;;;;;;5077930;28;20388;-73
2022/04/21 13:28:02;;;;;;;2.95;1.02;;;28.40;34.30;;;;;;5077772;28;20036;-74
2022/04/21 13:30:28;;;;;;;3.03;1.20;;;28.30;34.40;;;;;;5077297;28;20027;-75
2022/04/21 13:33:27;;;;;;;7.03;1.25;;;28.20;34.40;;;;;;5077183;28;20423;-74
2022/04/21 13:35:45;;;;;;;2.42;1.00;;;28.30;34.50;;;;;;5078009;28;20029;-75
2022/04/21 13:38:11;;;;;;;2.85;1.25;;;28.50;34.30;;;;;;5095880;28;20490;-75
2022/04/21 13:40:37;;;;;;;3.65;1.17;;;28.80;34.10;;;;;;5060909;28;20506;-75